Buoy 51627

sailwx.info

Track history (hours):
 
Tides and Currents Weather Stations Pressure Air Temp Water Temp Dewpoint Dewpoint Depression Visibility Wind Speed Wind Dir Waves Ship Positions

Drifting buoy 51627

Last reported at 2015-Apr-19 04:00 UTC. Time now 2015-Apr-19 15:44 UTC.
Position N 07°20' W 156°13'.

Water temperature 28.6 ° C

Date/timePositionNaut miles runAvg speedWind from/ knotsBaromVisibWave heightAir tempDewpointWater temp
2015-Apr-19 04:00N 07°20' W 156°13'0 0.2 28.6
2015-Apr-19 03:00N 07°20' W 156°13'0 0.1 28.7
2015-Apr-18 19:00N 07°21' W 156°13'2 0.8 28.5
2015-Apr-18 17:00N 07°20' W 156°14'3 0.3 28.5
2015-Apr-18 07:00N 07°17' W 156°14'1 0.3 28.5
2015-Apr-18 03:00N 07°16' W 156°14'0 0.0 28.6
2015-Apr-18 02:00N 07°16' W 156°14'2 0.9 28.6
2015-Apr-18 00:00N 07°15' W 156°13'1 0.3 28.7
2015-Apr-17 20:00N 07°14' W 156°12'1 0.2 28.5
2015-Apr-17 13:00N 07°13' W 156°11'0 0.0 28.6
2015-Apr-17 12:00N 07°13' W 156°11'1 0.3 28.6
2015-Apr-17 08:00N 07°13' W 156°10'1 0.3 28.6
2015-Apr-17 05:00N 07°13' W 156°09'0 0.1 28.7
2015-Apr-17 04:00N 07°13' W 156°09'1 0.7 28.8
2015-Apr-17 03:00N 07°14' W 156°09'0 0.1 28.8
2015-Apr-17 00:00N 07°14' W 156°09'0 0.0 28.9
2015-Apr-16 23:00N 07°14' W 156°09'4 0.7 28.8
2015-Apr-16 17:00N 07°18' W 156°08'0 0.0 28.6
2015-Apr-16 16:00N 07°18' W 156°08'2 0.6 28.6
2015-Apr-16 13:00N 07°20' W 156°08'7 0.8 28.6
2015-Apr-16 04:00N 07°27' W 156°12'8 1.0 28.7
2015-Apr-15 20:00N 07°31' W 156°18'3 2.6 28.7
2015-Apr-15 19:00N 07°31' W 156°21'1 0.3 28.7
2015-Apr-15 15:00N 07°31' W 156°22'6 1.0 28.7
2015-Apr-15 09:00N 07°32' W 156°28'1 1.2 28.9
2015-Apr-15 08:00N 07°31' W 156°29'3 3.1 28.9
2015-Apr-15 07:00N 07°31' W 156°32'0 0.0 28.9
2015-Apr-15 06:00N 07°31' W 156°32'3 1.0 28.9
2015-Apr-15 03:00N 07°30' W 156°35'5 0.4 29.1
2015-Apr-14 16:00N 07°27' W 156°39'4 0.3 28.6
2015-Apr-14 04:00N 07°24' W 156°41'0 0.4 28.7
2015-Apr-14 03:00N 07°24' W 156°41'2 0.2 28.7
2015-Apr-13 18:00N 07°22' W 156°42'0 0.1 28.5
2015-Apr-13 15:00N 07°22' W 156°43'0 0.5 28.5
2015-Apr-13 14:00N 07°22' W 156°43'0 0.2 28.5
2015-Apr-13 12:00N 07°22' W 156°43'2 0.5 28.5
2015-Apr-13 08:00N 07°22' W 156°41'2 1.9 28.5
2015-Apr-13 07:00N 07°22' W 156°43'0 0.1 28.6
2015-Apr-13 04:00N 07°22' W 156°44'1 0.4 28.6
2015-Apr-13 02:00N 07°23' W 156°44'1 0.4 28.7
2015-Apr-13 00:00N 07°23' W 156°45'1 0.7 28.7
2015-Apr-12 23:00N 07°23' W 156°46'2 0.3 28.7
2015-Apr-12 15:00N 07°21' W 156°47'1 0.5 28.4
2015-Apr-12 13:00N 07°21' W 156°48'0 0.0 28.5
2015-Apr-12 12:00N 07°21' W 156°48'0 0.0 28.5
2015-Apr-12 11:00N 07°21' W 156°48'0 0.1 28.5
2015-Apr-12 08:00N 07°21' W 156°48'1 0.7 28.5
2015-Apr-12 07:00N 07°21' W 156°49'0 0.1 28.5
2015-Apr-12 04:00N 07°21' W 156°49'1 0.3 28.5
2015-Apr-12 02:00N 07°21' W 156°49'1 1.3 28.5
2015-Apr-12 01:00N 07°22' W 156°50'1 0.5 28.5
2015-Apr-11 23:00N 07°23' W 156°51'0 0.0 28.5
2015-Apr-11 22:00N 07°23' W 156°51'0 0.0 28.5
2015-Apr-11 21:00N 07°23' W 156°51'1 0.6 28.5
2015-Apr-11 20:00N 07°23' W 156°52'0 0.0 28.5
2015-Apr-11 19:00N 07°23' W 156°52'1 0.6 28.5
2015-Apr-11 17:00N 07°23' W 156°53'1 0.6 28.4
2015-Apr-11 15:00N 07°24' W 156°54'0 0.0 28.4
2015-Apr-11 14:00N 07°24' W 156°54'9 0.8 28.4
2015-Apr-11 03:00N 07°24' W 157°03'1 0.7 28.5
2015-Apr-11 02:00N 07°24' W 157°03'1 1.2 28.5
2015-Apr-11 01:00N 07°24' W 157°04'4 0.8 28.5
2015-Apr-10 20:00N 07°22' W 157°08'2 0.5 28.5
2015-Apr-10 16:00N 07°20' W 157°09'4 0.5 28.5
2015-Apr-10 09:00N 07°18' W 157°12'0 0.3 28.5
2015-Apr-10 08:00N 07°18' W 157°12'1 1.1 28.5
2015-Apr-10 07:00N 07°18' W 157°13'0 0.0 28.5
2015-Apr-10 05:00N 07°18' W 157°13'9 0.4 28.6
2015-Apr-09 04:00N 07°11' W 157°20'   28.7
Track history (hours):
 
Tides and Currents Weather Stations Pressure Air Temp Water Temp Dewpoint Dewpoint Depression Visibility Wind Speed Wind Dir Waves Ship Positions

Drifting buoy 51627

Last reported at 2015-Apr-19 04:00 UTC. Time now 2015-Apr-19 15:44 UTC.
Position N 07°20' W 156°13'.

Water temperature 28.6 ° C

Date/timePositionNaut miles runAvg speedWind from/ knotsBaromVisibWave heightAir tempDewpointWater temp
2015-Apr-19 04:00N 07°20' W 156°13'0 0.2 28.6
2015-Apr-19 03:00N 07°20' W 156°13'0 0.1 28.7
2015-Apr-18 19:00N 07°21' W 156°13'2 0.8 28.5
2015-Apr-18 17:00N 07°20' W 156°14'3 0.3 28.5
2015-Apr-18 07:00N 07°17' W 156°14'1 0.3 28.5
2015-Apr-18 03:00N 07°16' W 156°14'0 0.0 28.6
2015-Apr-18 02:00N 07°16' W 156°14'2 0.9 28.6
2015-Apr-18 00:00N 07°15' W 156°13'1 0.3 28.7
2015-Apr-17 20:00N 07°14' W 156°12'1 0.2 28.5
2015-Apr-17 13:00N 07°13' W 156°11'0 0.0 28.6
2015-Apr-17 12:00N 07°13' W 156°11'1 0.3 28.6
2015-Apr-17 08:00N 07°13' W 156°10'1 0.3 28.6
2015-Apr-17 05:00N 07°13' W 156°09'0 0.1 28.7
2015-Apr-17 04:00N 07°13' W 156°09'1 0.7 28.8
2015-Apr-17 03:00N 07°14' W 156°09'0 0.1 28.8
2015-Apr-17 00:00N 07°14' W 156°09'0 0.0 28.9
2015-Apr-16 23:00N 07°14' W 156°09'4 0.7 28.8
2015-Apr-16 17:00N 07°18' W 156°08'0 0.0 28.6
2015-Apr-16 16:00N 07°18' W 156°08'2 0.6 28.6
2015-Apr-16 13:00N 07°20' W 156°08'7 0.8 28.6
2015-Apr-16 04:00N 07°27' W 156°12'8 1.0 28.7
2015-Apr-15 20:00N 07°31' W 156°18'3 2.6 28.7
2015-Apr-15 19:00N 07°31' W 156°21'1 0.3 28.7
2015-Apr-15 15:00N 07°31' W 156°22'6 1.0 28.7
2015-Apr-15 09:00N 07°32' W 156°28'1 1.2 28.9
2015-Apr-15 08:00N 07°31' W 156°29'3 3.1 28.9
2015-Apr-15 07:00N 07°31' W 156°32'0 0.0 28.9
2015-Apr-15 06:00N 07°31' W 156°32'3 1.0 28.9
2015-Apr-15 03:00N 07°30' W 156°35'5 0.4 29.1
2015-Apr-14 16:00N 07°27' W 156°39'4 0.3 28.6
2015-Apr-14 04:00N 07°24' W 156°41'0 0.4 28.7
2015-Apr-14 03:00N 07°24' W 156°41'2 0.2 28.7
2015-Apr-13 18:00N 07°22' W 156°42'0 0.1 28.5
2015-Apr-13 15:00N 07°22' W 156°43'0 0.5 28.5
2015-Apr-13 14:00N 07°22' W 156°43'0 0.2 28.5
2015-Apr-13 12:00N 07°22' W 156°43'2 0.5 28.5
2015-Apr-13 08:00N 07°22' W 156°41'2 1.9 28.5
2015-Apr-13 07:00N 07°22' W 156°43'0 0.1 28.6
2015-Apr-13 04:00N 07°22' W 156°44'1 0.4 28.6
2015-Apr-13 02:00N 07°23' W 156°44'1 0.4 28.7
2015-Apr-13 00:00N 07°23' W 156°45'1 0.7 28.7
2015-Apr-12 23:00N 07°23' W 156°46'2 0.3 28.7
2015-Apr-12 15:00N 07°21' W 156°47'1 0.5 28.4
2015-Apr-12 13:00N 07°21' W 156°48'0 0.0 28.5
2015-Apr-12 12:00N 07°21' W 156°48'0 0.0 28.5
2015-Apr-12 11:00N 07°21' W 156°48'0 0.1 28.5
2015-Apr-12 08:00N 07°21' W 156°48'1 0.7 28.5
2015-Apr-12 07:00N 07°21' W 156°49'0 0.1 28.5
2015-Apr-12 04:00N 07°21' W 156°49'1 0.3 28.5
2015-Apr-12 02:00N 07°21' W 156°49'1 1.3 28.5
2015-Apr-12 01:00N 07°22' W 156°50'1 0.5 28.5
2015-Apr-11 23:00N 07°23' W 156°51'0 0.0 28.5
2015-Apr-11 22:00N 07°23' W 156°51'0 0.0 28.5
2015-Apr-11 21:00N 07°23' W 156°51'1 0.6 28.5
2015-Apr-11 20:00N 07°23' W 156°52'0 0.0 28.5
2015-Apr-11 19:00N 07°23' W 156°52'1 0.6 28.5
2015-Apr-11 17:00N 07°23' W 156°53'1 0.6 28.4
2015-Apr-11 15:00N 07°24' W 156°54'0 0.0 28.4
2015-Apr-11 14:00N 07°24' W 156°54'9 0.8 28.4
2015-Apr-11 03:00N 07°24' W 157°03'1 0.7 28.5
2015-Apr-11 02:00N 07°24' W 157°03'1 1.2 28.5
2015-Apr-11 01:00N 07°24' W 157°04'4 0.8 28.5
2015-Apr-10 20:00N 07°22' W 157°08'2 0.5 28.5
2015-Apr-10 16:00N 07°20' W 157°09'4 0.5 28.5
2015-Apr-10 09:00N 07°18' W 157°12'0 0.3 28.5
2015-Apr-10 08:00N 07°18' W 157°12'1 1.1 28.5
2015-Apr-10 07:00N 07°18' W 157°13'0 0.0 28.5
2015-Apr-10 05:00N 07°18' W 157°13'9 0.4 28.6
2015-Apr-09 04:00N 07°11' W 157°20'   28.7

Dump ship's entire track history